createdAt,value
2023-04-15T00:02:21.977Z,69.08
2023-04-15T00:04:48.751Z,69.79
2023-04-15T00:07:16.283Z,68.85
2023-04-15T00:09:43.024Z,68.81
2023-04-15T00:12:09.682Z,68.93
2023-04-15T00:14:36.930Z,69.43
2023-04-15T00:17:04.699Z,69.42
2023-04-15T00:19:32.472Z,69.32
2023-04-15T00:22:16.169Z,69.79
2023-04-15T00:24:55.673Z,69.67
2023-04-15T00:27:23.159Z,70.68
2023-04-15T00:29:59.773Z,70.10
2023-04-15T00:32:27.299Z,70.77
2023-04-15T00:35:22.572Z,70.16
2023-04-15T00:37:50.031Z,71.04
2023-04-15T00:40:18.789Z,70.18
2023-04-15T00:42:46.239Z,69.91
2023-04-15T00:45:19.980Z,70.31
2023-04-15T00:47:46.543Z,70.01
2023-04-15T00:50:21.374Z,70.07
2023-04-15T00:52:47.745Z,69.95
2023-04-15T00:55:15.805Z,70.08
2023-04-15T00:57:44.383Z,70.94
2023-04-15T01:00:12.139Z,71.02
2023-04-15T01:02:42.745Z,70.84
2023-04-15T01:05:27.100Z,71.00
2023-04-15T01:07:53.500Z,71.72
2023-04-15T01:10:19.985Z,71.16
2023-04-15T01:12:55.614Z,71.19
2023-04-15T01:15:24.156Z,70.85
2023-04-15T01:18:18.260Z,71.31
2023-04-15T01:20:58.181Z,71.55
2023-04-15T01:23:24.747Z,71.56
2023-04-15T01:25:53.461Z,71.48
2023-04-15T01:28:28.390Z,71.29
2023-04-15T01:31:14.239Z,71.35
2023-04-15T01:33:42.622Z,72.20
2023-04-15T01:36:40.174Z,72.04
2023-04-15T01:39:06.658Z,71.89
2023-04-15T01:41:33.127Z,71.92
2023-04-15T01:43:59.507Z,71.86
2023-04-15T01:46:38.355Z,71.95
2023-04-15T01:49:19.067Z,72.04
2023-04-15T01:51:52.859Z,72.36
2023-04-15T01:54:19.281Z,72.69
2023-04-15T01:56:52.097Z,72.32
2023-04-15T01:59:18.840Z,73.09
2023-04-15T02:01:45.399Z,73.18
2023-04-15T02:04:17.294Z,73.11
2023-04-15T02:06:44.840Z,73.49
2023-04-15T02:09:11.250Z,72.98
2023-04-15T02:11:48.934Z,73.92
2023-04-15T02:14:36.009Z,73.26
2023-04-15T02:17:08.334Z,73.34
2023-04-15T02:19:35.679Z,73.39
2023-04-15T02:22:02.187Z,73.52
2023-04-15T02:24:31.215Z,73.84
2023-04-15T02:26:57.703Z,73.87
2023-04-15T02:29:37.474Z,73.59
2023-04-15T02:32:07.507Z,73.75
2023-04-15T02:34:34.032Z,74.39
2023-04-15T02:37:56.170Z,74.60
2023-04-15T02:40:22.806Z,74.85
2023-04-15T02:42:50.303Z,74.81
2023-04-15T02:45:20.997Z,74.87
2023-04-15T02:47:47.553Z,75.32
2023-04-15T02:50:16.615Z,75.57
2023-04-15T02:52:53.321Z,75.77
2023-04-15T02:55:33.269Z,76.09
2023-04-15T02:58:00.850Z,76.08
2023-04-15T03:00:32.477Z,76.17
2023-04-15T03:03:06.526Z,76.18
2023-04-15T03:05:33.221Z,76.84
2023-04-15T03:08:01.356Z,76.95
2023-04-15T03:10:28.028Z,77.06
2023-04-15T03:12:54.411Z,76.87
2023-04-15T03:15:21.213Z,77.00
2023-04-15T03:17:49.514Z,77.41
2023-04-15T03:20:17.071Z,77.23
2023-04-15T03:22:43.669Z,77.18
2023-04-15T03:25:14.305Z,77.42
2023-04-15T03:27:41.784Z,77.36
2023-04-15T03:30:09.058Z,77.29
2023-04-15T03:32:35.713Z,77.37
2023-04-15T03:35:08.281Z,76.75
2023-04-15T03:37:34.724Z,77.26
2023-04-15T03:40:01.491Z,77.31
2023-04-15T03:42:31.872Z,77.76
2023-04-15T03:44:58.264Z,77.66
2023-04-15T03:47:24.739Z,77.64
2023-04-15T03:49:51.385Z,77.94
2023-04-15T03:52:23.900Z,78.34
2023-04-15T03:54:50.288Z,77.74
2023-04-15T03:57:17.805Z,78.05
2023-04-15T03:59:44.323Z,78.21
2023-04-15T04:02:17.325Z,78.46
2023-04-15T04:04:44.023Z,78.79
2023-04-15T04:07:16.690Z,78.37
2023-04-15T04:10:03.857Z,78.75
2023-04-15T04:12:35.478Z,78.85
2023-04-15T04:15:20.586Z,79.32
2023-04-15T04:18:11.783Z,79.37
2023-04-15T04:20:38.436Z,79.41
2023-04-15T04:23:04.976Z,79.62
2023-04-15T04:25:31.478Z,79.26
2023-04-15T04:27:58.035Z,79.61
2023-04-15T04:30:24.766Z,80.02
2023-04-15T04:32:51.778Z,79.70
2023-04-15T04:35:47.195Z,79.89
2023-04-15T04:38:13.660Z,79.89
2023-04-15T04:40:40.384Z,80.41
2023-04-15T04:43:16.129Z,80.38
2023-04-15T04:45:42.990Z,80.38
2023-04-15T04:48:10.693Z,80.71
2023-04-15T04:50:37.301Z,80.89
2023-04-15T04:53:03.884Z,80.55
2023-04-15T04:55:32.437Z,80.82
2023-04-15T04:58:09.983Z,80.81
2023-04-15T05:00:43.650Z,80.63
2023-04-15T05:03:16.344Z,80.68
2023-04-15T05:05:53.248Z,81.06
2023-04-15T05:08:19.623Z,81.10
2023-04-15T05:10:46.336Z,81.29
2023-04-15T05:13:27.135Z,81.41
2023-04-15T05:15:53.617Z,81.36
2023-04-15T05:18:21.220Z,81.11
2023-04-15T05:20:49.966Z,81.52
2023-04-15T05:23:17.800Z,81.60
2023-04-15T05:25:44.352Z,81.70
2023-04-15T05:28:23.946Z,81.70
2023-04-15T05:30:50.526Z,81.74
2023-04-15T05:33:42.536Z,82.14
2023-04-15T05:36:09.155Z,82.33
2023-04-15T05:38:41.003Z,81.73
2023-04-15T05:41:10.547Z,81.98
2023-04-15T05:43:37.011Z,81.80
2023-04-15T05:46:12.671Z,81.60
2023-04-15T05:48:43.410Z,81.44
2023-04-15T05:51:11.295Z,81.50
2023-04-15T05:53:37.787Z,81.54
2023-04-15T05:56:04.645Z,81.41
2023-04-15T05:58:31.084Z,81.49
2023-04-15T06:00:57.649Z,81.77
2023-04-15T06:03:24.303Z,81.40
2023-04-15T06:05:50.988Z,81.18
2023-04-15T06:08:29.855Z,81.46
2023-04-15T06:10:56.523Z,82.05
2023-04-15T06:13:22.978Z,82.07
2023-04-15T06:15:49.603Z,81.35
2023-04-15T06:18:16.110Z,81.84
2023-04-15T06:20:54.882Z,82.08
2023-04-15T06:23:21.451Z,82.08
2023-04-15T06:25:48.229Z,82.65
2023-04-15T06:28:14.669Z,82.45
2023-04-15T06:30:41.212Z,82.72
2023-04-15T06:33:07.671Z,82.79
2023-04-15T06:35:34.350Z,82.51
2023-04-15T06:38:00.797Z,82.72
2023-04-15T06:40:27.872Z,82.69
2023-04-15T06:42:55.704Z,82.84
2023-04-15T06:45:22.637Z,82.83
2023-04-15T06:47:49.094Z,82.57
2023-04-15T06:50:17.717Z,82.60
2023-04-15T06:52:44.214Z,82.42
2023-04-15T06:55:12.750Z,82.22
2023-04-15T06:58:01.171Z,81.90
2023-04-15T07:00:28.634Z,81.93
2023-04-15T07:02:55.812Z,82.00
2023-04-15T07:05:32.513Z,81.63
2023-04-15T07:07:59.018Z,81.28
2023-04-15T07:10:25.794Z,81.54
2023-04-15T07:12:52.629Z,81.15
2023-04-15T07:15:21.213Z,81.10
2023-04-15T07:17:47.803Z,80.52
2023-04-15T07:20:14.655Z,80.44
2023-04-15T07:22:41.234Z,80.24
2023-04-15T07:25:09.074Z,80.29
2023-04-15T07:27:35.633Z,79.96
2023-04-15T07:30:02.554Z,80.21
2023-04-15T07:32:29.268Z,79.64
2023-04-15T07:34:55.792Z,78.95
2023-04-15T07:37:24.468Z,78.92
2023-04-15T07:39:55.295Z,78.35
2023-04-15T07:42:35.109Z,77.39
2023-04-15T07:45:01.669Z,76.31
2023-04-15T07:47:28.257Z,75.51
2023-04-15T07:49:54.664Z,74.64
2023-04-15T07:52:21.088Z,74.34
2023-04-15T07:54:50.490Z,73.69
2023-04-15T07:57:17.607Z,73.25
2023-04-15T07:59:45.067Z,72.01
2023-04-15T08:02:12.069Z,72.07
2023-04-15T08:04:38.814Z,71.74
2023-04-15T08:07:06.178Z,71.49
2023-04-15T08:09:36.090Z,71.25
2023-04-15T08:12:02.673Z,70.17
2023-04-15T08:14:29.437Z,70.62
2023-04-15T08:16:55.905Z,70.86
2023-04-15T08:19:22.989Z,68.97
2023-04-15T08:21:49.742Z,69.02
2023-04-15T08:24:16.206Z,69.08
2023-04-15T08:26:42.762Z,68.47
2023-04-15T08:29:09.340Z,68.14
2023-04-15T08:31:35.928Z,68.05
2023-04-15T08:34:02.471Z,67.39
2023-04-15T08:36:37.301Z,67.37
2023-04-15T08:39:04.945Z,66.28
2023-04-15T08:41:40.671Z,66.33
2023-04-15T08:44:07.398Z,65.89
2023-04-15T08:46:34.870Z,66.50
2023-04-15T08:49:05.109Z,66.10
2023-04-15T08:51:33.815Z,65.57
2023-04-15T08:54:01.572Z,65.96
2023-04-15T08:56:28.173Z,66.01
2023-04-15T08:58:55.286Z,66.61
2023-04-15T09:01:22.748Z,65.52
2023-04-15T09:03:50.745Z,65.55
2023-04-15T09:06:25.619Z,65.70
2023-04-15T09:08:52.986Z,65.45
2023-04-15T09:11:20.385Z,64.83
2023-04-15T09:13:46.858Z,64.87
2023-04-15T09:16:19.566Z,65.21
2023-04-15T09:18:46.121Z,65.33
2023-04-15T09:21:15.471Z,65.80
2023-04-15T09:23:55.952Z,66.43
2023-04-15T09:26:35.734Z,65.26
2023-04-15T09:29:07.459Z,65.45
2023-04-15T09:31:33.912Z,65.78
2023-04-15T09:34:00.614Z,65.58
2023-04-15T09:36:29.793Z,65.84
2023-04-15T09:39:00.536Z,65.52
2023-04-15T09:41:28.586Z,65.92
2023-04-15T09:43:55.139Z,65.92
2023-04-15T09:46:41.180Z,66.02
2023-04-15T09:49:08.956Z,66.55
2023-04-15T09:51:35.775Z,65.69
2023-04-15T09:54:02.516Z,66.38
2023-04-15T09:56:37.801Z,65.73
2023-04-15T09:59:09.451Z,65.19
2023-04-15T10:01:41.083Z,65.02
2023-04-15T10:04:09.088Z,65.56
2023-04-15T10:06:36.362Z,65.30
2023-04-15T10:09:03.261Z,64.87
2023-04-15T10:11:35.096Z,64.85
2023-04-15T10:14:02.229Z,64.65
2023-04-15T10:16:29.059Z,65.32
2023-04-15T10:18:57.298Z,63.30
2023-04-15T10:21:24.660Z,63.18
2023-04-15T10:23:51.445Z,62.69
2023-04-15T10:26:17.963Z,63.04
2023-04-15T10:28:47.328Z,63.31
2023-04-15T10:31:20.088Z,62.94
2023-04-15T10:34:06.694Z,63.62
2023-04-15T10:36:34.313Z,63.20
2023-04-15T10:39:01.420Z,63.49
2023-04-15T10:41:31.275Z,62.95
2023-04-15T10:44:05.027Z,62.96
2023-04-15T10:46:40.102Z,63.38
2023-04-15T10:49:14.484Z,63.60
2023-04-15T10:51:52.849Z,63.10
2023-04-15T10:54:29.346Z,63.87
2023-04-15T10:57:01.949Z,63.09
2023-04-15T10:59:32.572Z,63.32
2023-04-15T11:02:04.397Z,63.48
2023-04-15T11:04:54.193Z,63.50
2023-04-15T11:08:02.538Z,63.09
2023-04-15T11:10:28.898Z,62.71
2023-04-15T11:12:59.454Z,62.99
2023-04-15T11:15:34.934Z,63.16
2023-04-15T11:18:19.759Z,62.78
2023-04-15T11:20:55.504Z,61.77
2023-04-15T11:23:39.991Z,62.66
2023-04-15T11:26:12.198Z,61.50
2023-04-15T11:28:41.424Z,60.11
2023-04-15T11:31:16.416Z,60.32
2023-04-15T11:33:59.878Z,60.49
2023-04-15T11:36:27.821Z,60.56
2023-04-15T11:38:54.561Z,60.98
2023-04-15T11:41:22.502Z,61.34
2023-04-15T11:43:49.751Z,60.22
2023-04-15T11:46:16.694Z,60.09
2023-04-15T11:48:45.279Z,59.19
2023-04-15T11:51:12.816Z,59.70
2023-04-15T11:53:41.541Z,60.54
2023-04-15T11:56:10.123Z,60.54
2023-04-15T11:58:44.798Z,60.75
2023-04-15T12:01:11.860Z,61.66
2023-04-15T12:03:57.296Z,60.87
2023-04-15T12:06:25.624Z,60.42
2023-04-15T12:08:59.282Z,61.68
2023-04-15T12:11:49.400Z,61.32
2023-04-15T12:14:15.726Z,60.13
2023-04-15T12:16:49.501Z,60.70
2023-04-15T12:19:27.560Z,59.97
2023-04-15T12:22:03.279Z,60.97
2023-04-15T12:24:34.396Z,60.36
2023-04-15T12:27:06.151Z,59.74
2023-04-15T12:29:34.532Z,59.31
2023-04-15T12:32:15.155Z,59.25
2023-04-15T12:34:45.151Z,59.19
2023-04-15T12:37:13.733Z,59.63
2023-04-15T12:39:42.802Z,58.79
2023-04-15T12:42:10.831Z,59.58
2023-04-15T12:44:39.485Z,59.18
2023-04-15T12:47:07.793Z,58.97
2023-04-15T12:49:36.271Z,59.15
2023-04-15T12:52:13.570Z,60.43
2023-04-15T12:54:40.023Z,61.50
2023-04-15T12:57:10.627Z,60.87
2023-04-15T12:59:37.478Z,60.95
2023-04-15T13:02:11.013Z,60.30
2023-04-15T13:04:37.544Z,60.34
2023-04-15T13:07:04.154Z,60.33
2023-04-15T13:09:32.414Z,61.39
2023-04-15T13:11:59.218Z,60.99
2023-04-15T13:14:25.681Z,61.42
2023-04-15T13:17:04.134Z,62.32
2023-04-15T13:19:32.098Z,62.82
2023-04-15T13:22:02.566Z,62.70
2023-04-15T13:24:28.942Z,63.36
2023-04-15T13:26:55.918Z,63.89
2023-04-15T13:29:25.734Z,64.37
2023-04-15T13:31:56.752Z,64.37
2023-04-15T13:34:23.254Z,65.01
2023-04-15T13:36:50.894Z,65.19
2023-04-15T13:39:17.274Z,65.60
2023-04-15T13:41:43.789Z,66.09
2023-04-15T13:44:12.649Z,66.99
2023-04-15T13:46:42.510Z,67.04
2023-04-15T13:49:15.357Z,66.55
2023-04-15T13:51:42.355Z,66.46
2023-04-15T13:54:08.854Z,66.80
2023-04-15T13:56:46.443Z,67.39
2023-04-15T13:59:26.106Z,67.12
2023-04-15T14:01:58.942Z,67.65
2023-04-15T14:04:25.419Z,67.58
2023-04-15T14:07:05.324Z,67.18
2023-04-15T14:09:31.899Z,67.95
2023-04-15T14:11:59.964Z,66.91
2023-04-15T14:14:30.557Z,65.89
2023-04-15T14:16:57.140Z,66.11
2023-04-15T14:19:24.290Z,67.12
2023-04-15T14:21:50.944Z,67.68
2023-04-15T14:24:25.582Z,68.42
2023-04-15T14:26:54.092Z,69.06
2023-04-15T14:29:20.636Z,69.81
2023-04-15T14:32:11.197Z,70.54
2023-04-15T14:34:35.284Z,71.42
2023-04-15T14:37:02.937Z,71.60
2023-04-15T14:39:30.845Z,70.88
2023-04-15T14:42:23.289Z,70.87
2023-04-15T14:44:50.590Z,71.86
2023-04-15T14:47:21.200Z,71.03
2023-04-15T14:50:04.443Z,70.35
2023-04-15T14:52:55.941Z,69.77
2023-04-15T14:55:37.788Z,69.44
2023-04-15T14:58:21.647Z,69.86
2023-04-15T15:00:49.248Z,69.60
2023-04-15T15:03:18.952Z,70.18
2023-04-15T15:05:47.030Z,70.12
2023-04-15T15:08:20.983Z,69.80
2023-04-15T15:10:49.049Z,69.76
2023-04-15T15:13:17.309Z,69.92
2023-04-15T15:15:44.072Z,69.40
2023-04-15T15:18:10.839Z,69.68
2023-04-15T15:20:37.366Z,70.21
2023-04-15T15:23:03.863Z,70.45
2023-04-15T15:25:30.367Z,70.34
2023-04-15T15:27:57.746Z,71.03
2023-04-15T15:30:24.263Z,70.60
2023-04-15T15:32:50.871Z,70.19
2023-04-15T15:35:17.428Z,70.27
2023-04-15T15:37:45.894Z,70.57
2023-04-15T15:40:12.822Z,70.80
2023-04-15T15:42:39.233Z,71.26
2023-04-15T15:45:07.978Z,71.24
2023-04-15T15:47:38.534Z,71.67
2023-04-15T15:50:06.263Z,71.93
2023-04-15T15:52:34.046Z,72.23
2023-04-15T15:55:00.883Z,72.10
2023-04-15T15:57:27.415Z,72.07
2023-04-15T16:00:04.778Z,72.00
2023-04-15T16:03:04.187Z,72.22
2023-04-15T16:05:23.907Z,72.89
2023-04-15T16:07:53.287Z,72.54
2023-04-15T16:10:36.061Z,72.41
2023-04-15T16:13:02.879Z,72.57
2023-04-15T16:15:30.495Z,72.78
2023-04-15T16:17:56.978Z,72.93
2023-04-15T16:20:33.669Z,73.03
2023-04-15T16:23:13.399Z,73.18
2023-04-15T16:26:01.784Z,73.26
2023-04-15T16:28:28.252Z,73.50
2023-04-15T16:30:56.200Z,73.42
2023-04-15T16:33:22.620Z,73.50
2023-04-15T16:35:49.065Z,72.98
2023-04-15T16:38:40.427Z,72.97
2023-04-15T16:41:08.021Z,73.30
2023-04-15T16:43:34.418Z,73.90
2023-04-15T16:46:00.887Z,73.55
2023-04-15T16:48:27.358Z,73.65
2023-04-15T16:50:53.742Z,74.05
2023-04-15T16:53:50.420Z,74.47
2023-04-15T16:56:16.962Z,74.19
2023-04-15T16:58:43.494Z,74.18
2023-04-15T17:01:10.146Z,74.17
2023-04-15T17:03:36.986Z,74.45
2023-04-15T17:06:20.866Z,74.12
2023-04-15T17:08:47.306Z,74.29
2023-04-15T17:11:17.981Z,74.67
2023-04-15T17:13:44.341Z,74.12
2023-04-15T17:16:10.927Z,73.99
2023-04-15T17:18:38.399Z,74.16
2023-04-15T17:21:05.195Z,73.89
2023-04-15T17:23:32.000Z,74.62
2023-04-15T17:25:58.390Z,74.22
2023-04-15T17:28:24.778Z,74.44
2023-04-15T17:30:51.281Z,75.04
2023-04-15T17:34:00.169Z,74.81
2023-04-15T17:36:04.627Z,74.62
2023-04-15T17:38:31.230Z,75.61
2023-04-15T17:40:57.627Z,75.07
2023-04-15T17:43:23.999Z,75.86
2023-04-15T17:45:51.078Z,75.26
2023-04-15T17:48:17.485Z,75.70
2023-04-15T17:50:44.117Z,75.43
2023-04-15T17:53:10.527Z,75.94
2023-04-15T17:55:36.985Z,75.60
2023-04-15T17:58:03.463Z,75.57
2023-04-15T18:00:29.814Z,75.60
2023-04-15T18:02:56.398Z,75.61
2023-04-15T18:05:23.089Z,75.64
2023-04-15T18:07:52.111Z,75.58
2023-04-15T18:10:18.737Z,75.82
2023-04-15T18:12:45.247Z,76.02
2023-04-15T18:15:11.833Z,75.98
2023-04-15T18:17:38.326Z,75.71
2023-04-15T18:20:05.137Z,75.84
2023-04-15T18:22:31.528Z,75.72
2023-04-15T18:25:03.903Z,75.20
2023-04-15T18:27:32.204Z,75.36
2023-04-15T18:29:58.745Z,75.68
2023-04-15T18:32:25.480Z,75.28
2023-04-15T18:34:51.857Z,75.49
2023-04-15T18:37:18.245Z,75.70
2023-04-15T18:39:44.664Z,75.85
2023-04-15T18:42:12.977Z,76.26
2023-04-15T18:44:39.332Z,76.27
2023-04-15T18:47:05.852Z,76.94
2023-04-15T18:49:33.252Z,77.08
2023-04-15T18:51:59.714Z,77.44
2023-04-15T18:54:26.087Z,77.68
2023-04-15T18:56:52.507Z,78.22
2023-04-15T18:59:29.573Z,78.38
2023-04-15T19:01:57.705Z,78.40
2023-04-15T19:04:24.253Z,79.06
2023-04-15T19:06:51.140Z,79.42
2023-04-15T19:09:17.602Z,79.31
2023-04-15T19:11:43.998Z,79.95
2023-04-15T19:14:11.270Z,80.15
2023-04-15T19:16:37.680Z,79.61
2023-04-15T19:19:04.479Z,79.72
2023-04-15T19:21:31.887Z,79.86
2023-04-15T19:24:09.850Z,80.00
2023-04-15T19:26:36.792Z,80.61
2023-04-15T19:29:03.406Z,81.17
2023-04-15T19:31:30.081Z,81.17
2023-04-15T19:33:56.786Z,81.25
2023-04-15T19:36:23.296Z,80.87
2023-04-15T19:39:09.279Z,81.12
2023-04-15T19:41:36.697Z,81.85
2023-04-15T19:44:04.452Z,81.92
2023-04-15T19:46:31.050Z,82.28
2023-04-15T19:48:57.653Z,82.43
2023-04-15T19:51:24.958Z,82.55
2023-04-15T19:53:53.861Z,83.05
2023-04-15T19:56:20.755Z,82.48
2023-04-15T19:58:52.594Z,82.54
2023-04-15T20:01:20.254Z,82.78
2023-04-15T20:03:47.237Z,82.63
2023-04-15T20:06:16.672Z,82.92
2023-04-15T20:08:43.076Z,82.78
2023-04-15T20:11:10.242Z,82.84
2023-04-15T20:13:36.759Z,82.18
2023-04-15T20:16:03.368Z,82.62
2023-04-15T20:18:29.851Z,82.47
2023-04-15T20:20:56.227Z,82.64
2023-04-15T20:23:22.672Z,82.64
2023-04-15T20:25:49.132Z,82.23
2023-04-15T20:28:17.929Z,82.54
2023-04-15T20:30:44.574Z,82.92
2023-04-15T20:33:11.132Z,82.12
2023-04-15T20:35:37.540Z,82.58
2023-04-15T20:38:04.542Z,82.58
2023-04-15T20:40:33.631Z,82.47
2023-04-15T20:43:00.530Z,82.60
2023-04-15T20:45:26.933Z,83.00
2023-04-15T20:47:55.163Z,82.47
2023-04-15T20:50:21.676Z,83.27
2023-04-15T20:52:48.048Z,82.92
2023-04-15T20:55:14.507Z,83.56
2023-04-15T20:57:50.121Z,83.26
2023-04-15T21:00:16.727Z,83.60
2023-04-15T21:02:43.195Z,83.79
2023-04-15T21:05:09.801Z,83.54
2023-04-15T21:07:36.222Z,83.77
2023-04-15T21:10:15.922Z,83.30
2023-04-15T21:12:42.541Z,83.45
2023-04-15T21:15:16.897Z,83.83
2023-04-15T21:17:44.340Z,83.80
2023-04-15T21:20:11.427Z,83.95
2023-04-15T21:22:37.814Z,84.02
2023-04-15T21:25:04.549Z,84.17
2023-04-15T21:27:30.953Z,84.67
2023-04-15T21:29:57.393Z,84.71
2023-04-15T21:32:23.808Z,84.83
2023-04-15T21:34:50.232Z,84.67
2023-04-15T21:37:16.602Z,85.18
2023-04-15T21:39:42.970Z,84.90
2023-04-15T21:42:09.410Z,85.22
2023-04-15T21:44:35.789Z,85.29
2023-04-15T21:47:02.420Z,85.85
2023-04-15T21:49:29.150Z,86.24
2023-04-15T21:51:59.240Z,86.23
2023-04-15T21:54:25.707Z,86.18
2023-04-15T21:56:52.325Z,85.70
2023-04-15T21:59:18.680Z,85.87
2023-04-15T22:01:45.519Z,86.22
2023-04-15T22:04:19.259Z,85.86
2023-04-15T22:06:46.398Z,86.09
2023-04-15T22:09:14.335Z,86.07
2023-04-15T22:11:41.327Z,86.74
2023-04-15T22:14:07.757Z,86.60
2023-04-15T22:16:34.142Z,86.64
2023-04-15T22:19:00.562Z,87.09
2023-04-15T22:21:27.036Z,86.77
2023-04-15T22:24:33.237Z,86.97
2023-04-15T22:26:39.971Z,86.83
2023-04-15T22:29:06.677Z,87.28
2023-04-15T22:31:33.337Z,87.62
2023-04-15T22:33:59.723Z,87.50
2023-04-15T22:36:26.489Z,87.96
2023-04-15T22:38:52.955Z,87.55
2023-04-15T22:41:19.313Z,88.00
2023-04-15T22:43:46.434Z,88.09
2023-04-15T22:46:13.677Z,88.00
2023-04-15T22:48:40.453Z,87.86
2023-04-15T22:51:06.838Z,88.60
2023-04-15T22:53:33.331Z,88.14
2023-04-15T22:55:59.707Z,88.46
2023-04-15T22:58:26.064Z,88.37
2023-04-15T23:00:52.520Z,88.77
2023-04-15T23:03:19.086Z,88.11
2023-04-15T23:05:46.189Z,88.43
2023-04-15T23:08:12.654Z,89.28
2023-04-15T23:10:40.129Z,88.73
2023-04-15T23:13:06.582Z,88.64
2023-04-15T23:15:33.071Z,89.34
2023-04-15T23:18:00.508Z,89.29
2023-04-15T23:20:26.916Z,89.53
2023-04-15T23:22:53.319Z,89.91
2023-04-15T23:25:22.184Z,89.90
2023-04-15T23:27:48.580Z,90.19
2023-04-15T23:30:15.076Z,90.06
2023-04-15T23:32:41.530Z,90.33
2023-04-15T23:35:08.598Z,89.93
2023-04-15T23:37:35.035Z,89.96
2023-04-15T23:40:01.412Z,90.28
2023-04-15T23:42:27.812Z,90.89
2023-04-15T23:44:54.311Z,90.45
2023-04-15T23:47:21.495Z,90.45
2023-04-15T23:49:47.878Z,90.98
2023-04-15T23:52:14.552Z,90.76
2023-04-15T23:54:41.001Z,91.01
2023-04-15T23:57:07.459Z,91.46
2023-04-15T23:59:33.888Z,91.87
